createdAt,value
2022-07-25T00:02:15.066Z,28.00
2022-07-25T00:07:22.099Z,28.00
2022-07-25T00:12:27.623Z,28.10
2022-07-25T00:17:32.665Z,28.20
2022-07-25T00:22:38.736Z,28.30
2022-07-25T00:27:44.569Z,28.30
2022-07-25T00:32:50.001Z,28.30
2022-07-25T00:37:55.317Z,28.40
2022-07-25T00:43:01.277Z,29.00
2022-07-25T00:48:07.613Z,29.60
2022-07-25T00:53:13.480Z,30.10
2022-07-25T00:58:20.717Z,30.60
2022-07-25T01:03:26.613Z,31.00
2022-07-25T01:08:32.934Z,31.20
2022-07-25T01:13:39.271Z,31.30
2022-07-25T01:18:45.758Z,31.80
2022-07-25T01:23:51.738Z,31.80
2022-07-25T01:28:56.913Z,32.10
2022-07-25T01:34:02.902Z,32.50
2022-07-25T01:39:08.829Z,32.80
2022-07-25T01:44:14.870Z,33.10
2022-07-25T01:49:20.625Z,33.60
2022-07-25T01:54:25.919Z,33.70
2022-07-25T01:59:31.431Z,34.00
2022-07-25T02:04:38.026Z,34.20
2022-07-25T02:09:43.923Z,34.50
2022-07-25T02:14:49.791Z,34.80
2022-07-25T02:19:55.377Z,35.00
2022-07-25T02:25:01.220Z,34.60
2022-07-25T02:30:08.603Z,34.30
2022-07-25T02:35:14.044Z,34.20
2022-07-25T02:40:19.388Z,34.40
2022-07-25T02:45:24.790Z,34.50
2022-07-25T02:50:29.927Z,34.50
2022-07-25T02:55:35.690Z,34.40
2022-07-25T03:00:45.736Z,34.10
2022-07-25T03:05:51.804Z,34.50
2022-07-25T03:10:57.652Z,34.10
2022-07-25T03:16:03.428Z,34.00
2022-07-25T03:21:10.044Z,34.40
2022-07-25T03:26:15.540Z,34.90
2022-07-25T03:31:21.232Z,35.10
2022-07-25T03:36:26.615Z,34.80
2022-07-25T03:41:57.579Z,34.70
2022-07-25T03:47:03.333Z,35.00
2022-07-25T03:52:09.053Z,35.20
2022-07-25T03:57:14.919Z,34.90
2022-07-25T04:02:20.872Z,34.70
2022-07-25T04:07:26.668Z,34.40
2022-07-25T04:12:32.396Z,34.50
2022-07-25T04:17:39.690Z,34.70
2022-07-25T04:22:47.062Z,34.30
2022-07-25T04:27:53.057Z,34.40
2022-07-25T04:32:58.938Z,34.40
2022-07-25T04:38:07.571Z,34.70
2022-07-25T04:43:16.518Z,35.00
2022-07-25T04:48:22.417Z,35.00
2022-07-25T04:53:28.076Z,35.20
2022-07-25T04:58:34.973Z,36.90
2022-07-25T05:03:40.783Z,37.30
2022-07-25T05:08:56.028Z,37.30
2022-07-25T05:14:01.439Z,38.30
2022-07-25T05:19:07.305Z,39.40
2022-07-25T05:24:13.052Z,40.00
2022-07-25T05:29:19.085Z,39.90
2022-07-25T05:34:25.041Z,40.20
2022-07-25T05:39:30.745Z,40.70
2022-07-25T05:44:36.851Z,41.70
2022-07-25T05:49:42.172Z,42.30
2022-07-25T05:54:48.343Z,41.70
2022-07-25T05:59:54.560Z,41.30
2022-07-25T06:05:01.024Z,42.10
2022-07-25T06:10:07.586Z,42.60
2022-07-25T06:15:22.518Z,42.60
2022-07-25T06:20:31.782Z,43.90
2022-07-25T06:25:38.083Z,44.80
2022-07-25T06:30:45.561Z,45.60
2022-07-25T06:35:51.407Z,44.10
2022-07-25T06:40:57.548Z,42.40
2022-07-25T06:46:02.988Z,43.00
2022-07-25T06:51:10.032Z,43.70
2022-07-25T06:56:17.722Z,43.40
2022-07-25T07:01:23.774Z,43.20
2022-07-25T07:06:29.972Z,42.80
2022-07-25T07:11:36.252Z,44.50
2022-07-25T07:16:43.226Z,45.60
2022-07-25T07:21:49.367Z,46.10
2022-07-25T07:26:56.995Z,44.90
2022-07-25T07:32:03.389Z,43.90
2022-07-25T07:37:09.413Z,43.90
2022-07-25T07:42:15.326Z,43.60
2022-07-25T07:47:23.678Z,43.70
2022-07-25T07:52:29.505Z,44.10
2022-07-25T07:57:34.805Z,45.40
2022-07-25T08:02:52.708Z,45.70
2022-07-25T08:07:59.737Z,45.40
2022-07-25T08:13:17.600Z,46.00
2022-07-25T08:18:24.001Z,46.10
2022-07-25T08:23:29.704Z,45.20
2022-07-25T08:28:35.764Z,45.10
2022-07-25T08:33:41.578Z,44.70
2022-07-25T08:38:47.613Z,42.90
2022-07-25T08:43:54.594Z,41.40
2022-07-25T08:49:01.255Z,39.70
2022-07-25T08:54:08.575Z,38.50
2022-07-25T08:59:14.566Z,37.80
2022-07-25T09:04:21.997Z,37.40
2022-07-25T09:09:39.053Z,36.90
2022-07-25T09:14:47.526Z,36.60
2022-07-25T09:19:59.362Z,36.20
2022-07-25T09:25:05.245Z,35.90
2022-07-25T09:30:17.639Z,35.70
2022-07-25T09:35:37.721Z,35.60
2022-07-25T09:40:44.241Z,35.40
2022-07-25T09:45:54.573Z,35.30
2022-07-25T09:51:00.612Z,35.20
2022-07-25T09:56:07.083Z,35.00
2022-07-25T10:01:16.118Z,34.80
2022-07-25T10:06:40.910Z,34.50
2022-07-25T10:12:09.284Z,34.30
2022-07-25T10:17:23.732Z,34.20
2022-07-25T10:22:59.050Z,34.10
2022-07-25T10:28:11.937Z,34.00
2022-07-25T10:33:23.332Z,33.90
2022-07-25T10:38:31.625Z,33.70
2022-07-25T10:43:44.630Z,33.70
2022-07-25T10:49:02.363Z,33.50
2022-07-25T10:54:20.387Z,33.40
2022-07-25T10:59:35.373Z,33.30
2022-07-25T11:04:41.249Z,33.10
2022-07-25T11:09:47.114Z,33.00
2022-07-25T11:14:52.928Z,32.90
2022-07-25T11:20:00.645Z,32.70
2022-07-25T11:25:15.804Z,32.50
2022-07-25T11:30:22.722Z,32.40
2022-07-25T11:35:34.135Z,32.30
2022-07-25T11:40:46.972Z,32.20
2022-07-25T11:46:00.964Z,32.00
2022-07-25T11:51:20.969Z,31.80
2022-07-25T11:56:42.396Z,31.80
2022-07-25T12:01:49.872Z,31.70
2022-07-25T12:07:09.714Z,31.60
2022-07-25T12:12:15.748Z,31.50
2022-07-25T12:17:21.477Z,31.40
2022-07-25T12:27:34.502Z,31.20
2022-07-25T12:32:40.960Z,31.20
2022-07-25T12:37:47.124Z,31.10
2022-07-25T12:42:53.126Z,31.10
2022-07-25T12:47:59.482Z,31.00
2022-07-25T12:53:05.392Z,30.90
2022-07-25T12:58:11.483Z,30.80
2022-07-25T13:03:17.326Z,30.80
2022-07-25T13:08:22.856Z,30.70
2022-07-25T13:13:29.069Z,30.70
2022-07-25T13:18:34.808Z,30.60
2022-07-25T13:23:41.559Z,30.50
2022-07-25T13:28:47.219Z,30.40
2022-07-25T13:33:53.849Z,30.30
2022-07-25T13:38:59.342Z,30.30
2022-07-25T13:44:05.104Z,30.30
2022-07-25T13:49:11.004Z,30.20
2022-07-25T13:54:17.318Z,30.30
2022-07-25T13:59:23.323Z,30.20
2022-07-25T14:04:29.291Z,30.10
2022-07-25T14:09:36.158Z,30.00
2022-07-25T14:14:42.558Z,30.00
2022-07-25T14:19:48.339Z,29.90
2022-07-25T14:24:54.448Z,29.90
2022-07-25T14:30:00.605Z,29.80
2022-07-25T14:35:08.014Z,29.80
2022-07-25T14:40:15.475Z,29.70
2022-07-25T14:45:21.156Z,29.60
2022-07-25T14:50:27.370Z,29.60
2022-07-25T14:55:33.700Z,29.60
2022-07-25T15:00:43.722Z,29.60
2022-07-25T15:05:49.475Z,29.60
2022-07-25T15:10:55.370Z,29.50
2022-07-25T15:16:01.492Z,29.40
2022-07-25T15:21:07.382Z,29.40
2022-07-25T15:26:13.446Z,29.30
2022-07-25T15:31:19.834Z,29.20
2022-07-25T15:36:29.577Z,29.20
2022-07-25T15:41:35.892Z,29.10
2022-07-25T15:46:47.049Z,29.10
2022-07-25T15:51:53.080Z,29.00
2022-07-25T15:56:59.201Z,29.00
2022-07-25T16:02:10.263Z,28.90
2022-07-25T16:07:15.647Z,28.90
2022-07-25T16:12:28.638Z,28.80
2022-07-25T16:17:35.077Z,28.80
2022-07-25T16:22:41.363Z,28.70
2022-07-25T16:27:46.974Z,28.70
2022-07-25T16:32:52.947Z,28.70
2022-07-25T16:37:58.907Z,28.60
2022-07-25T16:43:04.399Z,28.60
2022-07-25T16:48:09.879Z,28.60
2022-07-25T16:53:15.658Z,28.50
2022-07-25T16:58:21.160Z,28.50
2022-07-25T17:03:26.073Z,28.50
2022-07-25T17:08:33.714Z,28.40
2022-07-25T17:13:39.292Z,28.40
2022-07-25T17:18:44.995Z,28.30
2022-07-25T17:23:54.276Z,28.30
2022-07-25T17:29:01.432Z,28.20
2022-07-25T17:34:07.063Z,28.20
2022-07-25T17:39:12.755Z,28.20
2022-07-25T17:44:18.864Z,28.10
2022-07-25T17:49:25.169Z,28.10
2022-07-25T17:54:30.814Z,28.10
2022-07-25T17:59:37.299Z,28.10
2022-07-25T18:04:43.240Z,28.10
2022-07-25T18:09:48.549Z,28.00
2022-07-25T18:14:53.943Z,28.00
2022-07-25T18:19:59.612Z,28.00
2022-07-25T18:25:05.857Z,27.90
2022-07-25T18:30:12.585Z,27.90
2022-07-25T18:35:18.108Z,27.90
2022-07-25T18:40:23.809Z,27.80
2022-07-25T18:45:30.218Z,27.80
2022-07-25T18:50:36.191Z,27.80
2022-07-25T18:55:41.739Z,27.80
2022-07-25T19:00:47.809Z,27.80
2022-07-25T19:05:58.718Z,27.70
2022-07-25T19:11:07.247Z,27.70
2022-07-25T19:16:13.719Z,27.80
2022-07-25T19:21:20.705Z,27.70
2022-07-25T19:26:26.789Z,27.70
2022-07-25T19:31:32.568Z,27.60
2022-07-25T19:36:38.619Z,27.60
2022-07-25T19:41:46.846Z,27.60
2022-07-25T19:46:52.830Z,27.60
2022-07-25T19:51:58.844Z,27.60
2022-07-25T19:57:05.503Z,27.60
2022-07-25T20:02:11.354Z,27.60
2022-07-25T20:07:16.976Z,27.60
2022-07-25T20:12:22.452Z,27.60
2022-07-25T20:17:28.693Z,27.50
2022-07-25T20:22:39.197Z,27.50
2022-07-25T20:27:44.811Z,27.50
2022-07-25T20:32:50.318Z,27.50
2022-07-25T20:37:55.818Z,27.50
2022-07-25T20:43:02.431Z,27.50
2022-07-25T20:48:08.279Z,27.40
2022-07-25T20:53:14.526Z,27.30
2022-07-25T20:58:20.844Z,27.30
2022-07-25T21:03:26.326Z,27.30
2022-07-25T21:08:31.737Z,27.30
2022-07-25T21:13:37.282Z,27.30
2022-07-25T21:18:43.421Z,27.30
2022-07-25T21:23:49.074Z,27.30
2022-07-25T21:28:55.296Z,27.30
2022-07-25T21:34:00.772Z,27.20
2022-07-25T21:39:07.048Z,27.20
2022-07-25T21:44:12.763Z,27.20
2022-07-25T21:49:41.319Z,27.20
2022-07-25T21:54:48.037Z,27.10
2022-07-25T21:59:54.074Z,27.10
2022-07-25T22:04:59.520Z,27.10
2022-07-25T22:10:05.032Z,27.10
2022-07-25T22:15:12.517Z,27.10
2022-07-25T22:20:18.529Z,27.10
2022-07-25T22:25:24.563Z,27.10
2022-07-25T22:30:30.045Z,27.10
2022-07-25T22:35:35.798Z,27.10
2022-07-25T22:40:41.648Z,27.00
2022-07-25T22:45:47.693Z,27.00
2022-07-25T22:50:53.591Z,27.10
2022-07-25T22:55:59.396Z,27.10
2022-07-25T23:01:04.977Z,27.20
2022-07-25T23:06:10.644Z,27.30
2022-07-25T23:11:16.179Z,27.40
2022-07-25T23:16:22.626Z,27.40
2022-07-25T23:21:28.526Z,27.40
2022-07-25T23:26:34.240Z,27.40
2022-07-25T23:31:40.676Z,27.40
2022-07-25T23:36:46.714Z,27.50
2022-07-25T23:41:53.081Z,27.60
2022-07-25T23:46:59.165Z,27.60
2022-07-25T23:52:05.246Z,27.60
2022-07-25T23:57:11.980Z,27.70
